This is the latest recevied weather packets stored in our database for station/object JA0ZJX-13. If no packets are shown the sender has not sent any weather packets the latest 10 day(s).
| Time | Temp. | Humidity | Pressure | Rain* | Wind** | Luminosity | Snow |
|---|---|---|---|---|---|---|---|
| 1777879412 | 16.11° C | 54% | 1004.1 hPa | 0 mm | - | 466 W/m² | - |
| 1777878820 | 16.67° C | 53% | 1003.7 hPa | 0 mm | - | 501 W/m² | - |
| 1777878208 | 17.22° C | 53% | 1003.7 hPa | 0 mm | - | 568 W/m² | - |
| 1777877619 | 17.78° C | 51% | 1003.1 hPa | 0 mm | - | 519 W/m² | - |
| 1777877008 | 18.33° C | 51% | 1003.1 hPa | 0 mm | - | 232 W/m² | - |
| 1777876416 | 18.33° C | 49% | 1003 hPa | 0 mm | - | 610 W/m² | - |
| 1777875810 | 18.33° C | 49% | 1002.7 hPa | 0 mm | - | 450 W/m² | - |
| 1777875219 | 18.89° C | 51% | 1002.7 hPa | 0 mm | - | 612 W/m² | - |
| 1777874608 | 19.44° C | 49% | 1002.4 hPa | 0 mm | - | 269 W/m² | - |
| 1777874016 | 19.44° C | 49% | 1001.8 hPa | 0 mm | - | 459 W/m² | - |
| 1777873409 | 20° C | 47% | 1001.7 hPa | 0 mm | - | 322 W/m² | - |
| 1777872818 | 20° C | 51% | 1001.4 hPa | 0 mm | - | 875 W/m² | - |
| 1777872208 | 20° C | 51% | 1001.2 hPa | 0 mm | - | 768 W/m² | - |
| 1777871617 | 20° C | 50% | 1001.2 hPa | 0 mm | - | 650 W/m² | - |
| 1777871010 | 20° C | 51% | 1001 hPa | 0 mm | - | 577 W/m² | - |
| 1777870420 | 19.44° C | 51% | 1000.8 hPa | 0 mm | - | 274 W/m² | - |
| 1777869808 | 19.44° C | 51% | 1000.5 hPa | 0 mm | - | 366 W/m² | - |
| 1777869216 | 19.44° C | 52% | 1000.5 hPa | 0 mm | - | 276 W/m² | - |
| 1777868608 | 20° C | 50% | 1000 hPa | 0 mm | - | 135 W/m² | - |
| 1777868018 | 21.11° C | 47% | 1000.3 hPa | 0 mm | - | 156 W/m² | - |
| 1777867408 | 21.67° C | 45% | 1000 hPa | 0 mm | - | 213 W/m² | - |
| 1777866818 | 22.22° C | 43% | 999.9 hPa | 0 mm | - | 313 W/m² | - |
| 1777866208 | 21.67° C | 44% | 999.9 hPa | 0 mm | - | 1074 W/m² | - |
| 1777865617 | 21.11° C | 47% | 999.8 hPa | 0 mm | - | 1181 W/m² | - |
| 1777865005 | 21.67° C | 46% | 1000.2 hPa | 0 mm | - | 396 W/m² | - |
* Rain latest hour (hover to see other rain measurements)
** Current wind speed in m/s (hover to see current wind gust speed)